Atlanta, IN

10:19 PM EDT on October 22, 2014 (GMT -0400)
KINATLAN2 | Change Station
CLOSE
Current Station
Personal Weather Station
Location: Atlanta, IN
Elevation: 866 ft
Nearby Weather Stations
Active Advisory: Frost Advisory

Elev 866 ft 40.19 °N, 86.05 °W | Updated 4 minutes ago

Clear
Clear
43.9 °F
Feels Like 44 °F
N
2.0
Wind Variable Wind from East
Gusts 2.0 mph

Today
High -- | Low -- °F
--% Chance of Precip.
Yesterday
High -- | Low -- °F
Precip. -- in
8:01 AM 6:53 PM
Waning Crescent, 1% visible
Pressure 30.26 in
Visibility 5.0 miles
Clouds Clear
Windchill 44 °F
Dew Point 40 °F
Humidity 86%
Rainfall 0.00 in
Snow Depth Not available.
UV 0 out of 12
Pollen .90 out of 12
Ozone Good
PM2.5 Good
Flu Activity Sporadic
METAR KTYQ 230155Z AUTO 09004KT 5SM BR CLR 05/03 A3026 RMK AO2 T00480027

More Conditions Fewer Conditions

Pressure 30.26 in
Visibility 5.0 miles
Clouds Clear
Windchill 44 °F
Dew Point 40 °F
Humidity 86%
Rainfall 0.00 in
Snow Depth Not available.
UV 0 out of 12
Pollen .90 out of 12
Ozone Good
PM2.5 Good
Flu Activity Sporadic
METAR KTYQ 230155Z AUTO 09004KT 5SM BR CLR 05/03 A3026 RMK AO2 T00480027

More Conditions Fewer Conditions

10-Day Weather Forecast

Almanac

Astronomy

Oct. 22, 2014 Rise Set
Actual Time 8:01 AM EDT 6:53 PM EDT
Civil Twilight 7:34 AM EDT 7:21 PM EDT
Nautical Twilight 7:02 AM EDT 7:53 PM EDT
Astronomical Twilight 6:31 AM EDT 8:24 PM EDT
Moon 6:42 AM EDT (10/22) 6:20 PM EDT (10/22)
Length of Visible Light 11h 47m
Length of Day
10h 51m
Tomorrow will be 2m 29s shorter.
Waning Crescent, 1% of the Moon is Illuminated
Today
Waning Crescent
Oct 23
New
Oct 30
First Quarter
Nov 6
Full
Nov 14
Last Quarter

Today's Extremes

State Highs State Lows

Community

WunderPhotos

Upload Photos

1,764,109 photos uploaded!

Nearby

Air Quality

  Air Quality AQ Index Pollutant
Yesterday Good
OZONE
Current Good
PM2.5
Current Good
OZONE
Wednesday Good
PM2.5
Thursday Moderate
PM2.5

Snow Depth

Station Depth Elevation
No new snow has been reported.

Earthquake Activity

City Distance Mag. Time & Date
No recent earthquake activity has been reported nearby.
Minimum magnitude displayed is 2.5.

Coastal Water Temperatures

Place Temperature
No Stations Reporting

Nearby Weather Stations